Time;durP1;ratioP1;P1;durP2;ratioP2;P2;SDS_P1;SDS_P2;PMS_P1;PMS_P2;Temp;Humidity;BMP_temperature;BMP_pressure;BME280_temperature;BME280_humidity;BME280_pressure;Samples;Min_cycle;Max_cycle;Signal;HPM_P1;HPM_P2
2022/12/07 00:01:24;;;;;;;128.30;82.38;;;12.00;99.90;;;;;;5093569;28;20050;-69
2022/12/07 00:04:29;;;;;;;142.30;84.22;;;12.20;99.90;;;;;;5093709;28;20293;-69
2022/12/07 00:07:33;;;;;;;117.88;80.70;;;;;;;;;;5093223;28;20071;-69
2022/12/07 00:10:37;;;;;;;124.57;79.20;;;14.70;99.90;;;;;;5093248;28;20043;-69
2022/12/07 00:13:42;;;;;;;127.28;82.93;;;10.90;99.90;;;;;;5093250;28;20043;-69
2022/12/07 00:16:49;;;;;;;118.55;80.80;;;13.40;99.90;;;;;;5093211;28;20039;-69
2022/12/07 00:19:54;;;;;;;122.82;82.15;;;;;;;;;;5093174;28;20051;-69
2022/12/07 00:22:58;;;;;;;128.88;81.65;;;;;;;;;;5092902;28;20043;-69
2022/12/07 00:26:17;;;;;;;123.28;81.28;;;11.60;99.90;;;;;;5093074;28;20059;-69
2022/12/07 00:29:22;;;;;;;118.93;78.30;;;11.80;99.90;;;;;;5093038;28;20457;-69
2022/12/07 00:32:26;;;;;;;127.32;81.32;;;;;;;;;;5091905;28;20063;-69
2022/12/07 00:35:34;;;;;;;123.82;77.07;;;;;;;;;;5093014;28;20375;-68
2022/12/07 00:38:39;;;;;;;125.18;80.05;;;11.70;99.90;;;;;;5092840;28;20046;-69
2022/12/07 00:41:43;;;;;;;125.75;76.25;;;;;;;;;;5091859;28;20206;-69
2022/12/07 00:44:48;;;;;;;118.78;77.82;;;;;;;;;;5091935;28;20395;-69
2022/12/07 00:47:52;;;;;;;116.10;78.35;;;;;;;;;;5092692;28;20059;-69
2022/12/07 00:50:56;;;;;;;115.45;81.57;;;11.50;99.90;;;;;;5092353;28;20700;-69
2022/12/07 00:54:01;;;;;;;120.90;76.80;;;;;;;;;;5092769;28;20051;-69
2022/12/07 00:57:05;;;;;;;109.95;74.50;;;;;;;;;;5092473;28;20150;-69
2022/12/07 01:00:10;;;;;;;116.90;78.25;;;;;;;;;;5092183;28;20035;-69
2022/12/07 01:03:15;;;;;;;115.25;74.15;;;11.40;99.90;;;;;;5092349;28;20058;-69
2022/12/07 01:06:21;;;;;;;104.22;74.90;;;11.30;99.90;;;;;;5092037;28;20400;-69
2022/12/07 01:09:25;;;;;;;109.72;73.68;;;;;;;;;;5092267;28;20074;-69
2022/12/07 01:12:30;;;;;;;114.90;76.60;;;;;;;;;;5092187;28;20038;-69
2022/12/07 01:15:34;;;;;;;125.25;78.05;;;;;;;;;;5091825;28;20043;-69
2022/12/07 01:18:39;;;;;;;117.63;74.70;;;;;;;;;;5092148;28;20047;-69
2022/12/07 01:21:43;;;;;;;114.47;75.90;;;;;;;;;;5091915;28;20035;-69
2022/12/07 01:24:48;;;;;;;120.85;76.07;;;12.40;99.90;;;;;;5092105;28;20043;-69
2022/12/07 01:27:52;;;;;;;122.28;78.35;;;;;;;;;;5091624;28;20070;-69
2022/12/07 01:31:02;;;;;;;132.52;80.35;;;11.00;99.90;;;;;;5091404;28;20039;-69
2022/12/07 01:34:06;;;;;;;118.95;77.25;;;;;;;;;;5091902;28;20043;-69
2022/12/07 01:37:10;;;;;;;114.97;74.72;;;11.30;99.90;;;;;;5091629;28;20487;-69
2022/12/07 01:40:14;;;;;;;120.32;77.95;;;;;;;;;;5091725;28;20500;-69
2022/12/07 01:43:20;;;;;;;117.95;78.68;;;11.60;99.90;;;;;;5091288;28;20039;-69
2022/12/07 01:46:24;;;;;;;119.60;79.97;;;;;;;;;;5091400;28;20047;-69
2022/12/07 01:49:28;;;;;;;121.70;79.45;;;;;;;;;;5091434;28;20038;-69
2022/12/07 01:52:34;;;;;;;127.32;79.25;;;11.30;99.90;;;;;;5091202;28;20055;-69
2022/12/07 01:55:43;;;;;;;111.55;75.78;;;11.40;99.90;;;;;;5091383;28;20047;-69
2022/12/07 01:58:48;;;;;;;111.55;76.03;;;11.30;99.90;;;;;;5091161;28;20047;-69
2022/12/07 02:01:55;;;;;;;116.93;74.18;;;11.20;99.90;;;;;;5091267;28;20055;-69
2022/12/07 02:05:01;;;;;;;107.43;69.38;;;11.20;99.90;;;;;;5091090;28;20396;-69
2022/12/07 02:08:06;;;;;;;109.47;70.25;;;12.10;99.90;;;;;;5091156;28;20063;-69
2022/12/07 02:11:11;;;;;;;112.15;69.80;;;;;;;;;;5091002;28;20110;-69
2022/12/07 02:14:15;;;;;;;98.53;68.32;;;11.30;99.90;;;;;;5090934;28;20043;-69
2022/12/07 02:17:31;;;;;;;92.82;57.22;;;11.30;99.90;;;;;;5090993;28;20047;-69
2022/12/07 02:20:45;;;;;;;75.22;50.03;;;;;;;;;;5091367;28;20043;-69
2022/12/07 02:24:11;;;;;;;80.50;51.03;;;11.00;99.90;;;;;;5091331;28;20058;-69
2022/12/07 02:27:27;;;;;;;83.78;46.55;;;10.90;99.90;;;;;;5091400;28;20391;-69
2022/12/07 02:30:34;;;;;;;78.07;44.60;;;11.00;99.90;;;;;;5091157;28;20043;-69
2022/12/07 02:33:46;;;;;;;70.95;42.63;;;11.10;99.90;;;;;;5090938;28;20055;-69
2022/12/07 02:36:56;;;;;;;68.78;42.42;;;11.10;99.90;;;;;;5090649;28;20048;-69
2022/12/07 02:40:09;;;;;;;73.47;42.85;;;10.50;99.90;;;;;;5090980;28;20050;-69
2022/12/07 02:43:25;;;;;;;73.90;43.72;;;11.00;99.90;;;;;;5090870;28;20055;-69
2022/12/07 02:46:37;;;;;;;76.57;42.67;;;10.50;99.90;;;;;;5090492;28;20102;-69
2022/12/07 02:49:41;;;;;;;72.10;44.70;;;;;;;;;;5090833;28;20055;-69
2022/12/07 02:52:45;;;;;;;75.22;44.75;;;;;;;;;;5090877;28;20055;-69
2022/12/07 02:55:49;;;;;;;72.72;45.03;;;8.80;99.90;;;;;;5093594;28;20043;-69
2022/12/07 02:58:59;;;;;;;72.88;44.15;;;11.10;99.90;;;;;;5094699;28;20391;-69
2022/12/07 03:02:40;;;;;;;73.35;47.90;;;10.90;99.90;;;;;;5094643;28;20051;-69
2022/12/07 03:06:04;;;;;;;78.13;47.72;;;11.30;99.90;;;;;;5094240;28;20534;-69
2022/12/07 03:09:18;;;;;;;78.40;49.75;;;11.40;99.90;;;;;;5094582;28;20177;-69
2022/12/07 03:12:32;;;;;;;77.10;48.28;;;11.00;99.90;;;;;;5094654;28;20051;-69
2022/12/07 03:15:45;;;;;;;78.25;45.90;;;11.30;99.90;;;;;;5094329;28;20051;-69
2022/12/07 03:19:00;;;;;;;70.07;44.45;;;11.40;99.90;;;;;;5094285;28;20039;-67
2022/12/07 03:22:11;;;;;;;79.50;50.38;;;10.70;99.90;;;;;;5094407;28;20501;-68
2022/12/07 03:25:17;;;;;;;78.22;46.75;;;10.70;99.90;;;;;;5094388;28;20039;-69
2022/12/07 03:28:24;;;;;;;67.80;44.70;;;8.70;99.90;;;;;;5093958;28;20066;-69
2022/12/07 03:31:40;;;;;;;76.85;47.35;;;11.40;99.90;;;;;;5094104;28;20538;-68
2022/12/07 03:34:58;;;;;;;73.32;44.28;;;11.30;99.90;;;;;;5093967;28;20047;-68
2022/12/07 03:38:23;;;;;;;74.10;43.30;;;11.10;99.90;;;;;;5093493;28;20047;-68
2022/12/07 03:41:31;;;;;;;67.93;43.35;;;11.20;99.90;;;;;;5093665;28;20399;-68
2022/12/07 03:44:36;;;;;;;70.03;41.70;;;11.20;99.90;;;;;;5094114;28;20055;-68
2022/12/07 03:48:07;;;;;;;68.78;41.70;;;11.20;99.90;;;;;;5093453;28;20075;-68
2022/12/07 03:51:11;;;;;;;61.45;38.45;;;;;;;;;;5093621;28;20498;-68
2022/12/07 03:54:28;;;;;;;61.80;36.65;;;10.30;99.90;;;;;;5093670;28;20035;-68
2022/12/07 03:57:34;;;;;;;63.60;36.92;;;11.40;99.90;;;;;;5093751;28;20043;-67
2022/12/07 04:00:38;;;;;;;61.92;35.03;;;11.30;99.90;;;;;;5093641;28;20047;-68
2022/12/07 04:03:42;;;;;;;58.63;35.38;;;;;;;;;;5093830;28;20495;-69
2022/12/07 04:06:50;;;;;;;59.97;35.20;;;11.00;99.90;;;;;;5092080;28;20411;-68
2022/12/07 04:09:57;;;;;;;69.05;34.53;;;;;;;;;;5093533;28;20039;-68
2022/12/07 04:13:01;;;;;;;59.05;37.17;;;11.50;99.90;;;;;;5093385;28;20043;-68
2022/12/07 04:16:05;;;;;;;61.58;35.45;;;11.60;99.90;;;;;;5093322;28;20043;-68
2022/12/07 04:19:09;;;;;;;55.78;36.20;;;;;;;;;;5093154;28;20046;-69
2022/12/07 04:22:13;;;;;;;55.58;35.13;;;;;;;;;;5093362;28;20498;-68
2022/12/07 04:25:18;;;;;;;57.88;36.03;;;;;;;;;;5092849;28;20043;-68
2022/12/07 04:28:22;;;;;;;59.35;36.03;;;;;;;;;;5093065;28;20047;-68
2022/12/07 04:31:26;;;;;;;65.68;37.08;;;11.10;99.90;;;;;;5093012;28;20051;-69
2022/12/07 04:34:31;;;;;;;63.08;35.70;;;;;;;;;;5092999;28;20059;-68
2022/12/07 04:37:35;;;;;;;66.50;36.70;;;;;;;;;;5092643;28;20059;-67
2022/12/07 04:40:39;;;;;;;62.97;37.85;;;;;;;;;;5093162;28;20063;-68
2022/12/07 04:43:43;;;;;;;65.22;38.17;;;11.20;99.90;;;;;;5092772;28;20035;-68
2022/12/07 04:46:48;;;;;;;65.70;37.65;;;11.00;99.90;;;;;;5092516;28;20047;-68
2022/12/07 04:49:52;;;;;;;65.88;35.28;;;;;;;;;;5092781;28;20043;-68
2022/12/07 04:52:56;;;;;;;63.25;33.97;;;;;;;;;;5092411;28;20051;-68
2022/12/07 04:56:00;;;;;;;63.25;36.22;;;;;;;;;;5092550;28;20511;-69
2022/12/07 04:59:05;;;;;;;54.47;29.02;;;;;;;;;;5092427;28;20446;-68
2022/12/07 05:02:09;;;;;;;51.10;27.85;;;;;;;;;;5092702;28;20047;-69
2022/12/07 05:05:13;;;;;;;51.47;26.92;;;11.00;99.90;;;;;;5091965;28;20047;-68
2022/12/07 05:08:17;;;;;;;42.97;25.90;;;;;;;;;;5092105;28;20059;-68
2022/12/07 05:11:40;;;;;;;44.10;26.15;;;;;;;;;;5092224;28;20046;-68
2022/12/07 05:14:44;;;;;;;46.20;25.35;;;;;;;;;;5092283;28;20043;-69
2022/12/07 05:17:48;;;;;;;46.55;26.42;;;;;;;;;;5091978;28;20043;-69
2022/12/07 05:20:53;;;;;;;41.17;24.58;;;;;;;;;;5092030;28;20039;-69
2022/12/07 05:23:57;;;;;;;46.90;26.25;;;;;;;;;;5092098;28;20057;-69
2022/12/07 05:27:01;;;;;;;49.72;26.33;;;;;;;;;;5091800;28;20403;-69
2022/12/07 05:30:06;;;;;;;42.13;25.35;;;11.50;99.90;;;;;;5091825;28;20046;-69
2022/12/07 05:33:10;;;;;;;41.13;25.50;;;;;;;;;;5091657;28;20042;-69
2022/12/07 05:36:14;;;;;;;53.38;28.65;;;11.10;99.90;;;;;;5091657;28;20055;-69
2022/12/07 05:39:19;;;;;;;51.78;29.38;;;13.30;99.90;;;;;;5091896;28;20055;-68
2022/12/07 05:42:23;;;;;;;51.67;28.73;;;;;;;;;;5091681;28;20098;-69
2022/12/07 05:45:28;;;;;;;49.45;28.80;;;;;;;;;;5091341;28;20238;-68
2022/12/07 05:48:32;;;;;;;47.58;27.45;;;;;;;;;;5091589;28;20055;-70
2022/12/07 05:51:37;;;;;;;48.63;29.13;;;;;;;;;;5091158;28;20051;-69
2022/12/07 05:54:40;;;;;;;53.70;29.40;;;;;;;;;;5091324;28;20657;-69
2022/12/07 06:01:09;;;;;;;52.58;30.95;;;;;;;;;;5091298;28;20190;-69
2022/12/07 06:04:13;;;;;;;59.75;32.45;;;;;;;;;;5091255;28;20039;-69
2022/12/07 06:07:17;;;;;;;57.30;32.08;;;;;;;;;;5091065;28;20050;-69
2022/12/07 06:10:22;;;;;;;72.30;43.22;;;;;;;;;;5091013;28;20054;-69
2022/12/07 06:13:26;;;;;;;74.68;47.58;;;;;;;;;;5091322;28;20042;-69
2022/12/07 06:16:30;;;;;;;99.28;55.17;;;;;;;;;;5091083;28;20047;-69
2022/12/07 06:19:35;;;;;;;88.95;53.17;;;13.60;99.90;;;;;;5091123;28;20043;-69
2022/12/07 06:22:39;;;;;;;93.97;55.42;;;;;;;;;;5091024;28;20046;-66
2022/12/07 06:25:45;;;;;;;85.00;50.35;;;11.30;99.90;;;;;;5090861;28;20059;-66
2022/12/07 06:28:50;;;;;;;88.03;45.95;;;;;;;;;;5090118;28;20051;-66
2022/12/07 06:31:54;;;;;;;84.43;52.08;;;;;;;;;;5090628;28;20035;-66
2022/12/07 06:34:59;;;;;;;84.88;51.88;;;;;;;;;;5090961;28;20044;-64
2022/12/07 06:38:03;;;;;;;82.82;45.47;;;;;;;;;;5090804;28;20396;-66
2022/12/07 06:41:07;;;;;;;76.68;45.88;;;;;;;;;;5091056;28;20058;-67
2022/12/07 06:44:12;;;;;;;77.22;46.55;;;;;;;;;;5090767;28;20043;-67
2022/12/07 06:47:16;;;;;;;64.43;42.00;;;;;;;;;;5090759;28;20070;-66
2022/12/07 06:50:20;;;;;;;68.90;40.83;;;;;;;;;;5090768;28;20506;-65
2022/12/07 06:53:25;;;;;;;79.18;41.33;;;;;;;;;;5089811;28;20075;-66
2022/12/07 06:56:29;;;;;;;70.95;43.80;;;;;;;;;;5090755;28;20059;-65
2022/12/07 06:59:33;;;;;;;96.35;51.10;;;12.00;99.90;;;;;;5089878;28;20051;-68
2022/12/07 07:02:37;;;;;;;89.95;49.28;;;13.10;99.90;;;;;;5088622;28;20055;-70
2022/12/07 07:05:42;;;;;;;88.00;48.72;;;12.30;99.90;;;;;;5088403;28;20043;-72
2022/12/07 07:08:47;;;;;;;104.22;56.58;;;;;;;;;;5088609;28;20408;-72
2022/12/07 07:11:51;;;;;;;133.95;68.45;;;9.80;99.90;;;;;;5089484;28;20051;-72
2022/12/07 07:14:56;;;;;;;107.85;66.00;;;;;;;;;;5089648;28;20392;-73
2022/12/07 07:18:00;;;;;;;186.50;117.90;;;;;;;;;;5089736;28;20047;-72
2022/12/07 07:21:05;;;;;;;274.63;166.25;;;;;;;;;;5090705;28;20051;-73
2022/12/07 07:24:09;;;;;;;312.33;188.82;;;;;;;;;;5090379;28;20411;-73
2022/12/07 07:27:14;;;;;;;236.43;139.63;;;;;;;;;;5090372;28;20075;-69
2022/12/07 07:30:18;;;;;;;232.07;140.95;;;12.20;99.90;;;;;;5090451;28;20051;-68
2022/12/07 07:33:22;;;;;;;173.55;102.07;;;;;;;;;;5090746;28;20392;-66
2022/12/07 07:36:26;;;;;;;194.18;113.78;;;;;;;;;;5090399;28;20039;-68
2022/12/07 07:39:31;;;;;;;215.45;137.10;;;;;;;;;;5090163;28;20043;-68
2022/12/07 07:42:36;;;;;;;223.45;140.98;;;;;;;;;;5093500;28;20515;-71
2022/12/07 07:45:40;;;;;;;207.90;127.00;;;;;;;;;;5092801;28;20043;-68
2022/12/07 07:48:44;;;;;;;134.18;79.88;;;12.20;99.90;;;;;;5094071;28;20392;-70
2022/12/07 07:51:48;;;;;;;107.03;69.93;;;12.60;99.90;;;;;;5093405;28;20043;-68
2022/12/07 07:54:52;;;;;;;118.80;67.40;;;13.60;99.90;;;;;;5093508;28;20063;-68
2022/12/07 07:57:57;;;;;;;127.45;76.18;;;12.90;99.90;;;;;;5093357;28;20047;-68
2022/12/07 08:01:06;;;;;;;117.47;79.35;;;12.50;99.90;;;;;;5093221;28;20051;-72
2022/12/07 08:04:10;;;;;;;118.65;72.70;;;14.70;99.90;;;;;;5093211;28;20046;-72
2022/12/07 08:07:15;;;;;;;126.00;75.93;;;12.60;99.90;;;;;;5092794;28;20503;-66
2022/12/07 08:10:19;;;;;;;126.55;70.38;;;12.60;99.90;;;;;;5093022;28;20043;-69
2022/12/07 08:13:24;;;;;;;116.50;67.68;;;9.80;99.90;;;;;;5092967;28;20062;-68
2022/12/07 08:16:28;;;;;;;113.95;69.97;;;12.60;99.90;;;;;;5093300;28;20391;-68
2022/12/07 08:19:33;;;;;;;98.63;59.35;;;12.80;99.90;;;;;;5093285;28;20406;-68
2022/12/07 08:22:37;;;;;;;111.97;61.83;;;12.80;99.90;;;;;;5093357;28;20114;-68
2022/12/07 08:25:41;;;;;;;103.93;59.58;;;13.00;99.90;;;;;;5093212;28;20051;-71
2022/12/07 08:28:45;;;;;;;92.82;54.78;;;13.00;99.90;;;;;;5092840;28;20233;-70
2022/12/07 08:31:49;;;;;;;77.93;42.67;;;13.10;99.90;;;;;;5093088;28;20043;-68
2022/12/07 08:34:55;;;;;;;65.85;40.20;;;13.30;99.90;;;;;;5093195;28;20051;-70
2022/12/07 08:37:59;;;;;;;63.80;35.85;;;13.50;99.90;;;;;;5092852;28;20062;-69
2022/12/07 08:41:03;;;;;;;64.43;34.05;;;13.60;99.90;;;;;;5092893;28;20051;-70
2022/12/07 08:44:07;;;;;;;58.10;33.22;;;13.60;99.90;;;;;;5092828;28;20035;-72
2022/12/07 08:47:11;;;;;;;63.05;34.20;;;13.70;99.90;;;;;;5091882;28;20103;-71
2022/12/07 08:50:17;;;;;;;56.72;31.05;;;13.70;99.90;;;;;;5092577;28;20632;-70
2022/12/07 08:53:21;;;;;;;53.85;30.33;;;13.90;99.90;;;;;;5091716;28;20051;-69
2022/12/07 08:56:26;;;;;;;49.80;31.38;;;14.20;99.90;;;;;;5092281;28;20043;-68
2022/12/07 08:59:30;;;;;;;54.38;31.40;;;14.20;99.90;;;;;;5092204;28;20039;-67
2022/12/07 09:02:35;;;;;;;45.58;27.58;;;14.30;99.90;;;;;;5092416;28;20075;-68
2022/12/07 09:05:39;;;;;;;48.33;31.50;;;14.50;99.90;;;;;;5092073;28;20043;-68
2022/12/07 09:08:48;;;;;;;48.30;30.42;;;14.80;99.90;;;;;;5092285;28;20066;-69
2022/12/07 09:11:52;;;;;;;53.65;32.97;;;15.00;99.90;;;;;;5092092;28;20070;-67
2022/12/07 09:14:56;;;;;;;61.33;34.58;;;15.20;99.80;;;;;;5092241;28;20059;-71
2022/12/07 09:18:00;;;;;;;46.75;30.05;;;15.20;99.40;;;;;;5092724;28;20043;-68
2022/12/07 09:21:04;;;;;;;67.28;33.28;;;15.20;99.10;;;;;;5091639;28;20059;-66
2022/12/07 09:24:09;;;;;;;53.00;30.10;;;15.30;99.30;;;;;;5091932;28;20047;-70
2022/12/07 09:27:13;;;;;;;43.28;29.48;;;15.30;99.00;;;;;;5091660;28;20051;-67
2022/12/07 09:30:17;;;;;;;53.72;31.42;;;15.30;98.90;;;;;;5092027;28;20047;-69
2022/12/07 09:33:21;;;;;;;48.72;28.17;;;15.30;98.70;;;;;;5091981;28;20051;-70
2022/12/07 09:36:25;;;;;;;44.38;28.15;;;15.30;98.70;;;;;;5091574;28;20209;-69
2022/12/07 09:39:30;;;;;;;54.35;27.25;;;15.30;98.50;;;;;;5091707;28;20043;-69
2022/12/07 09:42:39;;;;;;;41.00;24.45;;;15.40;98.30;;;;;;5091840;28;20067;-69
2022/12/07 09:45:46;;;;;;;43.17;23.15;;;15.30;98.30;;;;;;5091705;28;20043;-67
2022/12/07 09:48:51;;;;;;;35.33;22.00;;;15.40;98.40;;;;;;5091311;28;20059;-67
2022/12/07 09:52:20;;;;;;;38.03;21.83;;;15.40;98.50;;;;;;5091259;28;20043;-69
2022/12/07 09:55:28;;;;;;;34.10;20.70;;;15.50;98.50;;;;;;5091186;28;20059;-69
2022/12/07 09:58:33;;;;;;;32.42;17.02;;;15.60;98.40;;;;;;5091284;28;20047;-66
2022/12/07 10:01:39;;;;;;;27.95;16.42;;;15.80;98.10;;;;;;5091194;28;20046;-66
2022/12/07 10:04:44;;;;;;;29.08;16.15;;;15.90;97.60;;;;;;5090935;28;20039;-69
2022/12/07 10:07:48;;;;;;;39.80;23.38;;;16.00;97.30;;;;;;5090986;28;20055;-75
2022/12/07 10:10:57;;;;;;;38.95;21.95;;;16.10;98.50;;;;;;5091153;28;20114;-73
2022/12/07 10:14:13;;;;;;;36.63;20.25;;;16.20;99.20;;;;;;5091324;28;20050;-75
2022/12/07 10:17:40;;;;;;;26.98;17.00;;;16.30;99.10;;;;;;5090497;28;20039;-69
2022/12/07 10:20:48;;;;;;;34.10;17.52;;;16.40;98.50;;;;;;5091240;28;20360;-68
2022/12/07 10:24:10;;;;;;;27.08;16.33;;;16.40;97.60;;;;;;5093840;28;20114;-70
2022/12/07 10:27:31;;;;;;;30.40;17.27;;;16.60;97.10;;;;;;5090790;28;20194;-70
2022/12/07 10:31:04;;;;;;;33.35;17.30;;;16.90;96.40;;;;;;5091182;28;20051;-69
2022/12/07 10:34:28;;;;;;;31.73;16.38;;;17.10;95.80;;;;;;5090888;28;20039;-66
2022/12/07 10:37:40;;;;;;;30.08;14.70;;;17.40;95.40;;;;;;5091075;28;20050;-68
2022/12/07 10:40:44;;;;;;;26.27;13.65;;;17.60;95.40;;;;;;5090923;28;20035;-67
2022/12/07 10:43:51;;;;;;;37.92;17.75;;;17.80;95.00;;;;;;5090938;28;20043;-68
2022/12/07 10:47:16;;;;;;;38.15;17.83;;;17.90;94.40;;;;;;5090534;28;20043;-65
2022/12/07 10:50:39;;;;;;;28.48;16.27;;;18.00;93.20;;;;;;5090629;28;20047;-65
2022/12/07 10:54:18;;;;;;;30.25;14.98;;;18.10;93.30;;;;;;5090550;28;20047;-66
2022/12/07 10:57:31;;;;;;;28.48;14.88;;;18.20;93.30;;;;;;5090641;28;20115;-68
2022/12/07 11:01:23;;;;;;;27.42;12.45;;;18.30;92.60;;;;;;5090262;28;20435;-67
2022/12/07 11:04:54;;;;;;;23.75;10.23;;;18.40;92.80;;;;;;5028304;28;20588;-68
2022/12/07 11:07:58;;;;;;;23.08;11.27;;;18.40;92.90;;;;;;5041657;28;20051;-68
2022/12/07 11:11:42;;;;;;;25.77;12.80;;;18.50;93.00;;;;;;5090366;28;20039;-66
2022/12/07 11:15:08;;;;;;;24.23;11.93;;;18.50;93.50;;;;;;5090489;28;20055;-66
2022/12/07 11:18:23;;;;;;;28.00;12.13;;;18.50;93.80;;;;;;5094169;28;20094;-66
2022/12/07 11:21:44;;;;;;;26.55;10.38;;;18.50;93.90;;;;;;5092579;28;20043;-68
2022/12/07 11:25:13;;;;;;;28.40;9.95;;;18.40;93.70;;;;;;5094859;28;20463;-68
2022/12/07 11:28:55;;;;;;;26.77;9.60;;;18.20;93.40;;;;;;5094041;28;20055;-68
2022/12/07 11:32:37;;;;;;;25.65;9.10;;;18.10;93.90;;;;;;5093877;28;20039;-68
2022/12/07 11:36:02;;;;;;;27.55;8.35;;;18.10;95.80;;;;;;5094045;28;20055;-69
2022/12/07 11:39:25;;;;;;;17.50;7.10;;;18.10;94.10;;;;;;5093732;28;20039;-68
2022/12/07 11:42:42;;;;;;;15.75;6.55;;;18.10;94.50;;;;;;5092195;28;20083;-68
2022/12/07 11:46:02;;;;;;;16.42;7.18;;;18.00;94.60;;;;;;5091731;28;20039;-68
2022/12/07 11:49:33;;;;;;;16.55;6.90;;;18.00;94.70;;;;;;5091470;28;20051;-68
2022/12/07 11:53:04;;;;;;;24.20;6.97;;;17.90;94.70;;;;;;5541069;22;20034;-67
2022/12/07 11:56:11;;;;;;;18.60;5.90;;;17.90;94.60;;;;;;5051280;28;20541;-68
2022/12/07 11:59:33;;;;;;;12.82;5.15;;;17.90;94.80;;;;;;5052124;28;20044;-68
2022/12/07 12:02:48;;;;;;;;;;;17.90;94.90;;;;;;5053666;28;20044;-68
2022/12/07 12:05:53;;;;;;;24.45;8.60;;;17.80;94.40;;;;;;5053274;28;20022;-68
2022/12/07 12:09:21;;;;;;;24.80;8.63;;;17.80;93.90;;;;;;5053084;28;20048;-68
2022/12/07 12:12:56;;;;;;;19.25;7.68;;;17.80;93.90;;;;;;5053170;28;20048;-68
2022/12/07 12:16:18;;;;;;;18.25;8.05;;;17.80;94.20;;;;;;5053681;28;20036;-68
2022/12/07 12:19:28;;;;;;;17.13;8.20;;;17.80;94.60;;;;;;5052825;28;20100;-67
2022/12/07 12:22:40;;;;;;;19.15;8.05;;;17.80;94.80;;;;;;5052993;28;20388;-68
2022/12/07 12:25:46;;;;;;;14.95;6.60;;;17.80;95.00;;;;;;5052812;28;20040;-67
2022/12/07 12:28:54;;;;;;;24.02;9.52;;;17.80;95.10;;;;;;5051845;28;20080;-67
2022/12/07 12:32:13;;;;;;;19.92;8.07;;;17.80;94.90;;;;;;5052884;28;20040;-68
2022/12/07 12:35:33;;;;;;;17.88;7.57;;;17.70;94.80;;;;;;5052749;28;20044;-67
2022/12/07 12:39:14;;;;;;;18.52;8.00;;;17.70;94.70;;;;;;5053007;28;20534;-67
2022/12/07 12:42:18;;;;;;;22.45;9.90;;;17.70;94.70;;;;;;5053051;28;20396;-68
2022/12/07 12:45:31;;;;;;;26.63;10.38;;;17.70;95.00;;;;;;5052419;28;20401;-67
2022/12/07 12:48:37;;;;;;;21.08;10.68;;;17.70;94.70;;;;;;5052553;28;20063;-66
2022/12/07 12:51:44;;;;;;;37.35;11.85;;;17.70;94.70;;;;;;5052649;28;20044;-68
2022/12/07 12:55:07;;;;;;;20.90;8.93;;;17.70;94.70;;;;;;5032183;28;20056;-68
2022/12/07 12:58:20;;;;;;;19.85;8.52;;;17.70;94.70;;;;;;5032685;28;20036;-67
2022/12/07 13:01:39;;;;;;;23.52;8.75;;;17.70;94.80;;;;;;5032709;28;20159;-68
2022/12/07 13:04:54;;;;;;;20.08;9.80;;;17.70;94.70;;;;;;5032380;28;20109;-68
2022/12/07 13:08:21;;;;;;;26.70;9.10;;;17.60;94.30;;;;;;5032592;28;20056;-68
2022/12/07 13:11:39;;;;;;;23.55;8.82;;;17.70;94.30;;;;;;5032216;28;20132;-68
2022/12/07 13:14:56;;;;;;;22.05;9.43;;;17.60;94.40;;;;;;5031927;28;20060;-68
2022/12/07 13:18:03;;;;;;;24.35;9.82;;;17.60;94.60;;;;;;5032333;28;20067;-68
2022/12/07 13:21:07;;;;;;;20.42;8.43;;;17.70;94.70;;;;;;5032021;28;20049;-68
2022/12/07 13:24:12;;;;;;;25.30;10.75;;;17.70;94.40;;;;;;5031910;28;20091;-68
2022/12/07 13:27:17;;;;;;;25.10;9.65;;;17.70;94.20;;;;;;5032153;28;20385;-67
2022/12/07 13:30:22;;;;;;;23.77;9.98;;;17.70;93.80;;;;;;5032247;28;20056;-68
2022/12/07 13:33:29;;;;;;;26.15;9.20;;;17.60;93.80;;;;;;5030912;28;20048;-68
2022/12/07 13:36:37;;;;;;;16.70;8.75;;;17.60;93.90;;;;;;5032036;28;20049;-65
2022/12/07 13:39:55;;;;;;;13.60;6.85;;;17.60;93.90;;;;;;5031661;28;20049;-68
2022/12/07 13:43:04;;;;;;;18.52;8.20;;;17.60;94.10;;;;;;5031714;28;20412;-68
2022/12/07 13:46:17;;;;;;;24.05;8.23;;;17.60;94.50;;;;;;5031639;28;20052;-68
2022/12/07 13:49:31;;;;;;;22.35;7.97;;;17.50;94.40;;;;;;5031492;28;20066;-64
2022/12/07 13:52:43;;;;;;;22.58;8.30;;;17.50;94.00;;;;;;5031309;28;20059;-66
2022/12/07 13:55:48;;;;;;;23.75;8.55;;;17.50;93.70;;;;;;5031609;28;20400;-65
2022/12/07 13:58:52;;;;;;;25.40;7.95;;;17.50;93.20;;;;;;5031480;28;20068;-65
2022/12/07 14:01:56;;;;;;;24.38;7.82;;;17.50;92.90;;;;;;5031532;28;20048;-65
2022/12/07 14:05:12;;;;;;;15.10;5.90;;;17.50;92.80;;;;;;5031511;28;20049;-66
2022/12/07 14:08:16;;;;;;;14.63;6.07;;;17.50;93.00;;;;;;5031536;28;20056;-65
2022/12/07 14:11:20;;;;;;;16.40;6.75;;;17.40;93.20;;;;;;5031383;28;20045;-66
2022/12/07 14:14:29;;;;;;;19.52;6.78;;;17.40;93.40;;;;;;5031305;28;20053;-66
2022/12/07 14:17:33;;;;;;;21.73;7.10;;;17.40;93.50;;;;;;5031428;28;20037;-67
2022/12/07 14:20:40;;;;;;;17.92;6.80;;;17.40;93.40;;;;;;5031246;28;20400;-66
2022/12/07 14:24:09;;;;;;;16.38;6.32;;;17.40;93.40;;;;;;5030099;28;20044;-67
2022/12/07 14:27:21;;;;;;;10.70;5.68;;;17.40;93.50;;;;;;5030917;28;20044;-68
2022/12/07 14:30:28;;;;;;;20.80;6.63;;;17.30;93.50;;;;;;5030690;28;20064;-68
2022/12/07 14:33:32;;;;;;;17.17;7.80;;;17.30;93.10;;;;;;5030950;28;20048;-67
2022/12/07 14:36:36;;;;;;;15.25;8.07;;;17.30;93.00;;;;;;5031128;28;20040;-66
2022/12/07 14:39:40;;;;;;;18.30;6.95;;;17.20;92.90;;;;;;5031199;28;20049;-68
2022/12/07 14:42:46;;;;;;;20.10;7.75;;;17.20;93.00;;;;;;5030117;28;20212;-68
2022/12/07 14:45:50;;;;;;;15.55;6.07;;;17.20;93.10;;;;;;5030939;28;20045;-67
2022/12/07 14:48:54;;;;;;;12.13;5.78;;;17.20;93.20;;;;;;5030859;28;20535;-65
2022/12/07 14:51:58;;;;;;;13.45;5.78;;;17.10;93.30;;;;;;5033826;28;20044;-66
2022/12/07 14:55:02;;;;;;;13.43;6.10;;;17.10;93.40;;;;;;5034470;28;20068;-65
2022/12/07 14:58:13;;;;;;;13.15;5.65;;;17.10;93.40;;;;;;5034473;28;20508;-66
2022/12/07 15:01:17;;;;;;;16.13;5.68;;;17.10;93.50;;;;;;5034419;28;20404;-67
2022/12/07 15:04:21;;;;;;;12.65;5.72;;;17.10;93.50;;;;;;5034663;28;20044;-65
2022/12/07 15:07:26;;;;;;;14.10;6.30;;;17.10;93.50;;;;;;5034368;28;20112;-66
2022/12/07 15:10:33;;;;;;;11.70;6.00;;;17.10;93.50;;;;;;5034708;28;20048;-67
2022/12/07 15:17:02;;;;;;;9.35;6.00;;;17.00;93.70;;;;;;5034374;28;20051;-66
2022/12/07 15:20:11;;;;;;;17.98;7.15;;;17.00;93.80;;;;;;5034317;28;20049;-67
2022/12/07 15:23:15;;;;;;;30.63;8.55;;;17.00;93.80;;;;;;5034042;28;20041;-66
2022/12/07 15:26:19;;;;;;;13.30;6.63;;;16.90;93.60;;;;;;5034285;28;20044;-66
2022/12/07 15:29:23;;;;;;;14.57;5.95;;;16.90;93.60;;;;;;5033943;28;20049;-67
2022/12/07 15:32:27;;;;;;;19.10;6.95;;;16.90;93.50;;;;;;5034325;28;20052;-66
2022/12/07 15:35:31;;;;;;;18.77;5.97;;;16.80;93.40;;;;;;5034207;28;20052;-72
2022/12/07 15:38:35;;;;;;;15.88;6.45;;;16.80;93.30;;;;;;5034334;28;20037;-70
2022/12/07 15:41:39;;;;;;;20.33;7.70;;;16.80;93.40;;;;;;5033794;28;20044;-69
2022/12/07 15:48:05;;;;;;;31.85;11.13;;;16.70;93.50;;;;;;5033764;28;20068;-67
2022/12/07 15:51:09;;;;;;;28.75;10.20;;;16.70;93.60;;;;;;5033489;28;20068;-64
2022/12/07 15:54:20;;;;;;;35.55;11.68;;;16.70;93.80;;;;;;5033214;28;20053;-66
2022/12/07 15:57:24;;;;;;;33.42;12.75;;;16.60;94.20;;;;;;5033925;28;20416;-66
2022/12/07 16:00:28;;;;;;;31.75;11.65;;;16.60;94.60;;;;;;5033904;28;20051;-68
2022/12/07 16:03:32;;;;;;;37.28;12.20;;;16.60;95.00;;;;;;5033232;28;20052;-67
2022/12/07 16:06:36;;;;;;;35.33;14.27;;;16.60;95.40;;;;;;5033497;28;20044;-68
2022/12/07 16:09:40;;;;;;;45.08;14.82;;;16.50;95.70;;;;;;5033339;28;20515;-69
2022/12/07 16:12:44;;;;;;;36.72;15.05;;;16.50;96.10;;;;;;5043961;28;20534;-67
2022/12/07 16:15:48;;;;;;;47.88;15.32;;;16.40;96.40;;;;;;5033035;28;20064;-66
2022/12/07 16:18:52;;;;;;;49.03;16.52;;;16.40;96.70;;;;;;5032603;28;20056;-66
2022/12/07 16:21:56;;;;;;;62.45;16.98;;;16.30;97.00;;;;;;5032913;28;20385;-67
2022/12/07 16:25:00;;;;;;;65.97;18.10;;;16.30;97.20;;;;;;5033093;28;20052;-69
2022/12/07 16:28:04;;;;;;;50.78;18.83;;;16.20;97.50;;;;;;5033157;28;20480;-66
2022/12/07 16:31:13;;;;;;;60.10;20.80;;;16.10;97.70;;;;;;5033141;28;20068;-66
2022/12/07 16:34:18;;;;;;;60.83;20.10;;;16.10;97.90;;;;;;5032819;28;20037;-68
2022/12/07 16:37:22;;;;;;;59.10;21.33;;;16.00;98.10;;;;;;5033142;28;20052;-66
2022/12/07 16:40:26;;;;;;;53.40;22.88;;;16.00;98.40;;;;;;5033254;28;20219;-67